createdAt,value
2018-10-21T00:01:29.554Z,75.98
2018-10-21T00:04:00.200Z,75.83
2018-10-21T00:06:30.825Z,76.27
2018-10-21T00:09:01.750Z,76.74
2018-10-21T00:11:32.581Z,76.86
2018-10-21T00:14:03.164Z,76.37
2018-10-21T00:16:33.795Z,76.72
2018-10-21T00:19:04.391Z,76.61
2018-10-21T00:21:35.291Z,76.28
2018-10-21T00:24:06.058Z,76.31
2018-10-21T00:26:36.691Z,76.72
2018-10-21T00:29:07.454Z,77.10
2018-10-21T00:31:37.747Z,77.21
2018-10-21T00:34:08.398Z,77.74
2018-10-21T00:36:39.035Z,77.98
2018-10-21T00:39:12.416Z,77.32
2018-10-21T00:41:43.725Z,76.94
2018-10-21T00:44:14.386Z,76.62
2018-10-21T00:46:46.080Z,76.26
2018-10-21T00:49:16.671Z,77.09
2018-10-21T00:51:47.307Z,76.92
2018-10-21T00:54:18.003Z,76.20
2018-10-21T00:56:48.594Z,76.92
2018-10-21T00:59:19.191Z,77.13
2018-10-21T01:01:49.828Z,76.92
2018-10-21T01:04:20.423Z,75.56
2018-10-21T01:06:50.997Z,74.45
2018-10-21T01:09:21.616Z,73.70
2018-10-21T01:11:52.188Z,74.36
2018-10-21T01:14:22.852Z,75.46
2018-10-21T01:16:53.699Z,75.79
2018-10-21T01:19:24.047Z,76.33
2018-10-21T01:21:54.611Z,76.83
2018-10-21T01:24:25.580Z,77.62
2018-10-21T01:26:56.206Z,77.04
2018-10-21T01:29:26.968Z,77.19
2018-10-21T01:31:57.599Z,77.34
2018-10-21T01:34:28.167Z,77.07
2018-10-21T01:36:58.890Z,77.86
2018-10-21T01:40:37.814Z,76.91
2018-10-21T01:43:09.873Z,78.10
2018-10-21T01:45:40.534Z,77.29
2018-10-21T01:48:13.862Z,77.72
2018-10-21T01:50:44.484Z,77.39
2018-10-21T01:53:16.052Z,77.26
2018-10-21T01:55:46.644Z,77.80
2018-10-21T01:58:17.275Z,78.16
2018-10-21T02:00:48.243Z,77.76
2018-10-21T02:03:19.176Z,77.91
2018-10-21T02:05:49.916Z,77.99
2018-10-21T02:08:20.775Z,78.22
2018-10-21T02:10:51.385Z,77.95
2018-10-21T02:13:21.964Z,79.25
2018-10-21T02:15:52.776Z,77.21
2018-10-21T02:18:23.368Z,78.05
2018-10-21T02:20:53.990Z,77.44
2018-10-21T02:23:24.766Z,76.80
2018-10-21T02:25:55.679Z,77.86
2018-10-21T02:28:26.276Z,77.42
2018-10-21T02:30:56.831Z,76.88
2018-10-21T02:33:27.488Z,77.93
2018-10-21T02:35:58.207Z,77.35
2018-10-21T02:38:28.796Z,77.24
2018-10-21T02:41:42.842Z,77.56
2018-10-21T02:44:17.889Z,78.07
2018-10-21T02:46:49.187Z,77.70
2018-10-21T02:49:20.490Z,78.09
2018-10-21T02:51:56.401Z,78.62
2018-10-21T02:54:28.104Z,77.93
2018-10-21T02:56:59.041Z,78.60
2018-10-21T02:59:29.896Z,77.92
2018-10-21T03:02:01.025Z,78.09
2018-10-21T03:04:31.620Z,77.27
2018-10-21T03:07:02.552Z,77.40
2018-10-21T03:09:33.615Z,78.22
2018-10-21T03:12:04.657Z,76.59
2018-10-21T03:14:35.487Z,75.71
2018-10-21T03:17:06.121Z,76.06
2018-10-21T03:19:36.785Z,77.19
2018-10-21T03:22:07.543Z,77.39
2018-10-21T03:24:38.397Z,78.38
2018-10-21T03:27:09.280Z,78.22
2018-10-21T03:29:40.279Z,78.56
2018-10-21T03:32:10.859Z,78.72
2018-10-21T03:34:41.732Z,77.83
2018-10-21T03:37:12.582Z,77.24
2018-10-21T03:39:43.199Z,78.02
2018-10-21T03:42:14.075Z,78.78
2018-10-21T03:44:44.943Z,77.45
2018-10-21T03:47:15.788Z,78.61
2018-10-21T03:49:46.368Z,77.37
2018-10-21T03:52:17.553Z,77.77
2018-10-21T03:54:48.534Z,77.43
2018-10-21T03:57:19.156Z,77.21
2018-10-21T03:59:50.195Z,77.93
2018-10-21T04:02:21.083Z,78.26
2018-10-21T04:04:51.931Z,77.71
2018-10-21T04:07:23.036Z,77.31
2018-10-21T04:09:54.061Z,76.04
2018-10-21T04:12:24.848Z,75.72
2018-10-21T04:14:55.416Z,75.39
2018-10-21T04:17:26.315Z,76.07
2018-10-21T04:19:57.241Z,78.26
2018-10-21T04:22:27.828Z,77.00
2018-10-21T04:24:58.433Z,76.64
2018-10-21T04:27:29.059Z,77.47
2018-10-21T04:29:59.948Z,78.40
2018-10-21T04:32:31.925Z,78.03
2018-10-21T04:35:02.763Z,78.50
2018-10-21T04:38:10.107Z,78.21
2018-10-21T04:40:40.699Z,77.23
2018-10-21T04:43:11.544Z,76.80
2018-10-21T04:45:42.383Z,77.80
2018-10-21T04:48:13.060Z,77.86
2018-10-21T04:50:44.051Z,77.96
2018-10-21T04:53:15.152Z,78.89
2018-10-21T04:55:46.027Z,78.92
2018-10-21T04:58:16.687Z,78.75
2018-10-21T05:00:48.040Z,78.79
2018-10-21T05:03:18.840Z,79.08
2018-10-21T05:05:49.920Z,78.96
2018-10-21T05:08:20.820Z,79.26
2018-10-21T05:10:51.676Z,78.64
2018-10-21T05:13:22.239Z,78.34
2018-10-21T05:15:53.095Z,77.45
2018-10-21T05:18:23.991Z,77.42
2018-10-21T05:20:54.859Z,77.19
2018-10-21T05:23:26.135Z,77.72
2018-10-21T05:25:56.717Z,77.81
2018-10-21T05:28:27.295Z,77.58
2018-10-21T05:30:58.157Z,78.19
2018-10-21T05:33:29.019Z,77.08
2018-10-21T05:35:59.971Z,78.59
2018-10-21T05:38:31.236Z,78.32
2018-10-21T05:41:01.852Z,78.48
2018-10-21T05:43:32.427Z,79.40
2018-10-21T05:46:03.303Z,78.35
2018-10-21T05:48:34.349Z,78.82
2018-10-21T05:51:05.115Z,80.01
2018-10-21T05:53:35.967Z,79.36
2018-10-21T05:56:07.096Z,79.26
2018-10-21T05:58:37.693Z,79.41
2018-10-21T06:01:08.321Z,78.70
2018-10-21T06:03:39.218Z,79.15
2018-10-21T06:06:09.808Z,78.89
2018-10-21T06:08:40.421Z,79.50
2018-10-21T06:11:11.009Z,79.53
2018-10-21T06:13:41.623Z,79.12
2018-10-21T06:16:12.349Z,79.97
2018-10-21T06:18:43.456Z,79.20
2018-10-21T06:21:14.331Z,79.67
2018-10-21T06:23:45.055Z,79.63
2018-10-21T06:26:16.103Z,78.79
2018-10-21T06:28:47.723Z,79.77
2018-10-21T06:31:18.341Z,79.90
2018-10-21T06:33:48.762Z,78.86
2018-10-21T06:36:19.490Z,79.49
2018-10-21T06:38:50.375Z,78.92
2018-10-21T06:41:21.388Z,79.45
2018-10-21T06:43:52.143Z,79.17
2018-10-21T06:46:22.753Z,79.83
2018-10-21T06:48:53.803Z,79.07
2018-10-21T06:51:24.429Z,78.91
2018-10-21T06:53:55.018Z,78.36
2018-10-21T06:56:25.761Z,79.27
2018-10-21T06:58:56.521Z,78.80
2018-10-21T07:01:27.135Z,78.94
2018-10-21T07:03:57.747Z,78.07
2018-10-21T07:06:29.385Z,78.22
2018-10-21T07:09:01.303Z,77.82
2018-10-21T07:11:31.927Z,77.53
2018-10-21T07:14:02.533Z,77.67
2018-10-21T07:16:33.204Z,78.06
2018-10-21T07:19:03.957Z,77.15
2018-10-21T07:21:34.519Z,76.72
2018-10-21T07:24:05.563Z,77.58
2018-10-21T07:26:36.150Z,77.58
2018-10-21T07:29:07.024Z,77.02
2018-10-21T07:31:37.612Z,77.24
2018-10-21T07:34:08.368Z,77.09
2018-10-21T07:36:39.605Z,77.36
2018-10-21T07:39:11.319Z,77.55
2018-10-21T07:41:41.988Z,76.58
2018-10-21T07:44:12.606Z,76.48
2018-10-21T07:46:43.765Z,75.78
2018-10-21T07:49:14.368Z,75.53
2018-10-21T07:51:45.164Z,75.79
2018-10-21T07:54:15.781Z,76.80
2018-10-21T07:56:46.780Z,75.24
2018-10-21T07:59:17.394Z,76.04
2018-10-21T08:01:48.477Z,76.36
2018-10-21T08:04:19.038Z,75.96
2018-10-21T08:07:06.253Z,74.36
2018-10-21T08:09:36.868Z,74.26
2018-10-21T08:12:07.460Z,74.77
2018-10-21T08:14:38.148Z,73.14
2018-10-21T08:17:08.947Z,72.27
2018-10-21T08:19:39.569Z,70.35
2018-10-21T08:22:10.236Z,69.96
2018-10-21T08:24:41.026Z,69.17
2018-10-21T08:27:11.712Z,67.92
2018-10-21T08:29:42.462Z,66.53
2018-10-21T08:32:13.041Z,66.66
2018-10-21T08:34:43.839Z,66.12
2018-10-21T08:37:14.437Z,66.36
2018-10-21T08:39:45.072Z,66.13
2018-10-21T08:42:15.659Z,66.12
2018-10-21T08:44:46.387Z,65.54
2018-10-21T08:47:17.004Z,63.14
2018-10-21T08:49:47.626Z,62.33
2018-10-21T08:52:18.509Z,61.85
2018-10-21T08:54:49.228Z,59.68
2018-10-21T08:57:19.830Z,59.84
2018-10-21T08:59:50.660Z,59.26
2018-10-21T09:02:21.240Z,58.75
2018-10-21T09:04:51.844Z,58.85
2018-10-21T09:07:22.524Z,59.51
2018-10-21T09:09:53.145Z,59.14
2018-10-21T09:12:24.016Z,59.17
2018-10-21T09:14:54.689Z,56.60
2018-10-21T09:17:25.485Z,56.56
2018-10-21T09:19:56.200Z,56.04
2018-10-21T09:22:26.797Z,55.71
2018-10-21T09:24:57.649Z,54.79
2018-10-21T09:27:28.647Z,54.19
2018-10-21T09:29:59.269Z,53.66
2018-10-21T09:32:29.946Z,53.83
2018-10-21T09:35:00.521Z,53.19
2018-10-21T09:37:31.364Z,52.51
2018-10-21T09:40:02.177Z,52.52
2018-10-21T09:42:33.283Z,52.44
2018-10-21T09:45:04.347Z,52.19
2018-10-21T09:47:35.507Z,52.56
2018-10-21T09:50:06.426Z,52.20
2018-10-21T09:52:37.364Z,52.86
2018-10-21T09:55:14.136Z,52.78
2018-10-21T09:57:45.766Z,51.85
2018-10-21T10:00:21.528Z,52.05
2018-10-21T10:02:57.225Z,51.12
2018-10-21T10:05:27.861Z,50.66
2018-10-21T10:07:58.467Z,49.38
2018-10-21T10:10:29.116Z,49.30
2018-10-21T10:12:59.801Z,49.25
2018-10-21T10:15:30.606Z,48.72
2018-10-21T10:18:01.384Z,48.96
2018-10-21T10:20:32.045Z,48.33
2018-10-21T10:23:02.665Z,47.62
2018-10-21T10:25:33.307Z,47.70
2018-10-21T10:28:03.956Z,47.28
2018-10-21T10:30:34.841Z,47.98
2018-10-21T10:33:06.239Z,47.70
2018-10-21T10:35:36.828Z,47.45
2018-10-21T10:38:07.418Z,47.71
2018-10-21T10:40:38.039Z,47.51
2018-10-21T10:43:08.795Z,48.00
2018-10-21T10:45:39.483Z,47.86
2018-10-21T10:48:10.397Z,47.78
2018-10-21T10:50:40.984Z,48.20
2018-10-21T10:53:11.687Z,48.28
2018-10-21T10:55:46.083Z,47.35
2018-10-21T10:58:17.209Z,47.67
2018-10-21T11:00:48.571Z,48.29
2018-10-21T11:03:19.154Z,48.10
2018-10-21T11:05:49.871Z,47.84
2018-10-21T11:08:20.508Z,47.38
2018-10-21T11:10:51.152Z,47.69
2018-10-21T11:13:21.799Z,47.64
2018-10-21T11:15:52.620Z,47.23
2018-10-21T11:18:23.237Z,47.58
2018-10-21T11:20:54.476Z,47.44
2018-10-21T11:23:25.062Z,47.45
2018-10-21T11:25:55.756Z,46.82
2018-10-21T11:28:26.329Z,46.91
2018-10-21T11:30:57.166Z,47.01
2018-10-21T11:33:27.938Z,46.49
2018-10-21T11:35:58.770Z,46.05
2018-10-21T11:38:29.581Z,46.14
2018-10-21T11:41:00.219Z,45.50
2018-10-21T11:43:31.259Z,45.59
2018-10-21T11:46:01.935Z,45.50
2018-10-21T11:48:32.723Z,45.83
2018-10-21T11:51:03.404Z,45.72
2018-10-21T11:53:34.005Z,45.72
2018-10-21T11:56:04.719Z,45.48
2018-10-21T11:58:35.361Z,45.70
2018-10-21T12:01:06.114Z,45.53
2018-10-21T12:03:36.916Z,45.10
2018-10-21T12:06:07.757Z,45.10
2018-10-21T12:08:38.368Z,45.34
2018-10-21T12:11:09.631Z,44.62
2018-10-21T12:13:40.207Z,45.42
2018-10-21T12:16:10.955Z,45.16
2018-10-21T12:18:41.727Z,44.52
2018-10-21T12:21:12.582Z,44.23
2018-10-21T12:23:43.248Z,45.16
2018-10-21T12:26:14.163Z,44.60
2018-10-21T12:28:44.583Z,45.00
2018-10-21T12:31:15.396Z,44.74
2018-10-21T12:33:46.243Z,44.08
2018-10-21T12:36:16.909Z,44.52
2018-10-21T12:38:47.593Z,44.62
2018-10-21T12:41:18.374Z,44.07
2018-10-21T12:43:49.276Z,44.12
2018-10-21T12:46:19.894Z,44.08
2018-10-21T12:48:50.503Z,44.03
2018-10-21T12:51:21.130Z,43.15
2018-10-21T12:53:51.774Z,43.45
2018-10-21T12:56:22.858Z,44.38
2018-10-21T12:58:53.484Z,44.39
2018-10-21T13:01:24.071Z,43.95
2018-10-21T13:03:54.685Z,44.41
2018-10-21T13:06:25.783Z,43.37
2018-10-21T13:08:56.785Z,44.31
2018-10-21T13:11:27.403Z,44.02
2018-10-21T13:13:58.020Z,44.21
2018-10-21T13:16:28.620Z,44.34
2018-10-21T13:18:59.213Z,44.50
2018-10-21T13:21:30.029Z,44.82
2018-10-21T13:24:00.620Z,44.15
2018-10-21T13:26:31.007Z,43.95
2018-10-21T13:29:01.739Z,44.30
2018-10-21T13:31:32.380Z,43.85
2018-10-21T13:34:03.028Z,44.13
2018-10-21T13:36:33.851Z,44.43
2018-10-21T13:39:06.876Z,43.85
2018-10-21T13:41:37.517Z,43.79
2018-10-21T13:44:07.939Z,43.41
2018-10-21T13:46:38.534Z,43.88
2018-10-21T13:49:09.190Z,43.43
2018-10-21T13:51:40.265Z,43.66
2018-10-21T13:54:11.092Z,43.79
2018-10-21T13:56:41.709Z,43.29
2018-10-21T13:59:12.648Z,43.08
2018-10-21T14:01:43.383Z,42.62
2018-10-21T14:04:14.024Z,42.36
2018-10-21T14:06:44.835Z,42.04
2018-10-21T14:09:15.601Z,42.53
2018-10-21T14:11:46.355Z,42.75
2018-10-21T14:14:16.968Z,42.45
2018-10-21T14:16:47.822Z,42.26
2018-10-21T14:19:18.453Z,42.64
2018-10-21T14:21:49.459Z,43.02
2018-10-21T14:24:20.074Z,43.04
2018-10-21T14:26:50.863Z,43.55
2018-10-21T14:29:21.515Z,43.79
2018-10-21T14:31:52.348Z,42.89
2018-10-21T14:34:22.956Z,43.15
2018-10-21T14:36:53.715Z,43.19
2018-10-21T14:39:24.328Z,43.63
2018-10-21T14:41:54.974Z,43.62
2018-10-21T14:44:25.771Z,43.79
2018-10-21T14:46:56.372Z,43.74
2018-10-21T14:49:27.015Z,43.81
2018-10-21T14:51:57.773Z,43.29
2018-10-21T14:54:28.392Z,44.49
2018-10-21T14:56:58.989Z,44.37
2018-10-21T14:59:29.784Z,44.35
2018-10-21T15:02:00.425Z,44.38
2018-10-21T15:04:31.487Z,44.12
2018-10-21T15:07:02.083Z,44.07
2018-10-21T15:09:32.974Z,44.68
2018-10-21T15:12:03.758Z,44.51
2018-10-21T15:14:34.587Z,44.44
2018-10-21T15:17:05.744Z,44.98
2018-10-21T15:19:36.360Z,45.09
2018-10-21T15:22:07.672Z,45.12
2018-10-21T15:24:38.444Z,44.89
2018-10-21T15:27:09.358Z,44.76
2018-10-21T15:29:39.999Z,45.05
2018-10-21T15:32:10.703Z,44.91
2018-10-21T15:34:41.465Z,44.65
2018-10-21T15:37:12.232Z,45.04
2018-10-21T15:39:42.885Z,45.28
2018-10-21T15:42:13.659Z,44.52
2018-10-21T15:44:44.283Z,45.52
2018-10-21T15:47:15.116Z,45.02
2018-10-21T15:49:45.708Z,45.12
2018-10-21T15:52:16.329Z,45.31
2018-10-21T15:54:47.106Z,45.29
2018-10-21T15:57:17.699Z,44.90
2018-10-21T15:59:48.381Z,45.17
2018-10-21T16:02:19.025Z,45.77
2018-10-21T16:04:49.772Z,45.73
2018-10-21T16:07:20.348Z,46.08
2018-10-21T16:09:50.960Z,45.89
2018-10-21T16:12:21.558Z,46.16
2018-10-21T16:14:52.241Z,46.48
2018-10-21T16:17:22.891Z,46.39
2018-10-21T16:19:53.556Z,46.72
2018-10-21T16:22:24.293Z,47.19
2018-10-21T16:24:54.914Z,47.04
2018-10-21T16:27:25.561Z,47.25
2018-10-21T16:29:56.201Z,47.82
2018-10-21T16:32:27.147Z,48.07
2018-10-21T16:34:57.804Z,48.37
2018-10-21T16:37:28.453Z,48.60
2018-10-21T16:39:59.464Z,49.04
2018-10-21T16:42:30.052Z,49.16
2018-10-21T16:45:00.811Z,50.05
2018-10-21T16:47:31.415Z,50.24
2018-10-21T16:50:02.028Z,50.76
2018-10-21T16:52:32.599Z,50.92
2018-10-21T16:55:03.438Z,51.48
2018-10-21T16:57:34.114Z,51.58
2018-10-21T17:00:06.466Z,51.62
2018-10-21T17:02:37.203Z,51.80
2018-10-21T17:05:08.096Z,52.33
2018-10-21T17:07:38.852Z,52.57
2018-10-21T17:10:11.241Z,52.40
2018-10-21T17:12:41.718Z,52.54
2018-10-21T17:15:12.652Z,52.30
2018-10-21T17:17:43.927Z,52.88
2018-10-21T17:20:16.068Z,53.01
2018-10-21T17:22:47.008Z,52.76
2018-10-21T17:25:17.702Z,53.15
2018-10-21T17:27:48.661Z,53.62
2018-10-21T17:30:19.532Z,53.32
2018-10-21T17:32:50.352Z,53.40
2018-10-21T17:35:20.967Z,53.46
2018-10-21T17:37:51.571Z,53.52
2018-10-21T17:40:22.222Z,53.66
2018-10-21T17:42:53.100Z,53.49
2018-10-21T17:45:23.888Z,53.45
2018-10-21T17:47:54.525Z,53.34
2018-10-21T17:50:25.179Z,53.72
2018-10-21T17:52:56.171Z,53.57
2018-10-21T17:55:26.795Z,54.00
2018-10-21T17:57:57.462Z,53.93
2018-10-21T18:00:28.283Z,53.74
2018-10-21T18:02:58.931Z,53.79
2018-10-21T18:05:29.594Z,54.25
2018-10-21T18:08:00.227Z,55.09
2018-10-21T18:10:31.199Z,55.96
2018-10-21T18:13:01.849Z,56.29
2018-10-21T18:15:32.702Z,57.11
2018-10-21T18:18:04.451Z,57.68
2018-10-21T18:20:35.029Z,57.92
2018-10-21T18:23:06.189Z,57.56
2018-10-21T18:25:36.857Z,58.53
2018-10-21T18:28:07.638Z,58.17
2018-10-21T18:30:38.400Z,58.52
2018-10-21T18:33:09.098Z,58.85
2018-10-21T18:35:39.873Z,58.80
2018-10-21T18:38:10.539Z,59.44
2018-10-21T18:40:41.328Z,59.52
2018-10-21T18:43:12.063Z,59.39
2018-10-21T18:45:42.959Z,59.55
2018-10-21T18:48:13.640Z,60.22
2018-10-21T18:50:44.518Z,60.61
2018-10-21T18:53:15.191Z,60.40
2018-10-21T18:55:45.833Z,60.65
2018-10-21T18:58:16.582Z,60.56
2018-10-21T19:00:47.419Z,60.47
2018-10-21T19:03:18.065Z,60.82
2018-10-21T19:05:48.711Z,61.48
2018-10-21T19:08:19.452Z,61.40
2018-10-21T19:10:50.051Z,61.44
2018-10-21T19:13:21.072Z,62.29
2018-10-21T19:15:51.871Z,61.95
2018-10-21T19:18:22.723Z,61.90
2018-10-21T19:20:53.435Z,62.10
2018-10-21T19:23:24.135Z,61.66
2018-10-21T19:25:54.943Z,62.13
2018-10-21T19:28:25.605Z,62.68
2018-10-21T19:30:56.152Z,62.26
2018-10-21T19:33:27.107Z,62.47
2018-10-21T19:35:57.735Z,62.62
2018-10-21T19:38:28.382Z,62.89
2018-10-21T19:40:59.047Z,63.20
2018-10-21T19:43:29.819Z,63.46
2018-10-21T19:46:00.647Z,64.03
2018-10-21T19:48:31.488Z,63.71
2018-10-21T19:51:02.224Z,63.40
2018-10-21T19:53:32.960Z,64.11
2018-10-21T19:56:04.567Z,63.79
2018-10-21T19:58:35.297Z,64.73
2018-10-21T20:01:07.042Z,64.76
2018-10-21T20:03:37.824Z,64.66
2018-10-21T20:06:08.242Z,64.62
2018-10-21T20:08:38.856Z,64.73
2018-10-21T20:11:09.495Z,65.14
2018-10-21T20:13:40.112Z,65.61
2018-10-21T20:16:10.783Z,64.95
2018-10-21T20:18:41.599Z,65.52
2018-10-21T20:21:12.475Z,65.21
2018-10-21T20:23:43.053Z,65.71
2018-10-21T20:26:13.658Z,65.55
2018-10-21T20:28:44.259Z,65.23
2018-10-21T20:31:15.013Z,65.89
2018-10-21T20:33:45.801Z,66.00
2018-10-21T20:36:16.338Z,65.69
2018-10-21T20:38:47.121Z,66.20
2018-10-21T20:41:17.756Z,65.75
2018-10-21T20:43:48.382Z,66.05
2018-10-21T20:46:19.335Z,66.52
2018-10-21T20:48:50.038Z,66.53
2018-10-21T20:51:20.756Z,66.47
2018-10-21T20:53:51.514Z,66.28
2018-10-21T20:56:22.128Z,66.67
2018-10-21T20:58:52.731Z,66.86
2018-10-21T21:01:23.415Z,66.93
2018-10-21T21:03:54.041Z,66.85
2018-10-21T21:06:24.858Z,67.19
2018-10-21T21:08:55.449Z,68.09
2018-10-21T21:11:29.135Z,68.13
2018-10-21T21:13:59.743Z,67.86
2018-10-21T21:16:30.611Z,68.19
2018-10-21T21:19:01.229Z,68.21
2018-10-21T21:21:31.848Z,68.69
2018-10-21T21:24:02.474Z,68.66
2018-10-21T21:26:33.312Z,68.11
2018-10-21T21:29:03.934Z,68.21
2018-10-21T21:31:34.553Z,68.41
2018-10-21T21:34:05.368Z,68.65
2018-10-21T21:36:36.220Z,68.40
2018-10-21T21:39:10.602Z,68.87
2018-10-21T21:41:42.095Z,69.10
2018-10-21T21:44:12.717Z,69.28
2018-10-21T21:46:43.797Z,69.27
2018-10-21T21:49:14.769Z,69.18
2018-10-21T21:51:45.385Z,69.39
2018-10-21T21:54:16.207Z,69.70
2018-10-21T21:56:47.446Z,69.06
2018-10-21T21:59:18.020Z,69.28
2018-10-21T22:01:48.628Z,69.83
2018-10-21T22:04:19.213Z,69.59
2018-10-21T22:06:50.040Z,68.89
2018-10-21T22:09:20.667Z,70.00
2018-10-21T22:11:51.280Z,69.57
2018-10-21T22:14:22.215Z,68.22
2018-10-21T22:16:52.827Z,69.74
2018-10-21T22:19:23.404Z,69.26
2018-10-21T22:21:53.993Z,70.32
2018-10-21T22:24:24.698Z,69.88
2018-10-21T22:26:55.307Z,70.67
2018-10-21T22:29:25.911Z,70.64
2018-10-21T22:31:56.525Z,70.47
2018-10-21T22:34:27.158Z,70.61
2018-10-21T22:36:57.736Z,69.99
2018-10-21T22:39:28.341Z,69.77
2018-10-21T22:41:58.947Z,70.45
2018-10-21T22:44:29.437Z,69.12
2018-10-21T22:47:00.037Z,71.04
2018-10-21T22:49:30.960Z,69.94
2018-10-21T22:52:01.633Z,70.78
2018-10-21T22:54:32.331Z,71.55
2018-10-21T22:57:03.223Z,70.20
2018-10-21T22:59:33.807Z,71.32
2018-10-21T23:02:04.462Z,70.63
2018-10-21T23:04:35.201Z,71.92
2018-10-21T23:07:06.694Z,71.21
2018-10-21T23:09:36.997Z,71.76
2018-10-21T23:12:08.029Z,71.62
2018-10-21T23:14:39.084Z,71.06
2018-10-21T23:17:09.715Z,71.51
2018-10-21T23:19:45.687Z,72.39
2018-10-21T23:22:16.671Z,72.07
2018-10-21T23:24:47.608Z,71.41
2018-10-21T23:27:19.999Z,71.53
2018-10-21T23:29:50.866Z,71.94
2018-10-21T23:32:21.472Z,71.71
2018-10-21T23:34:52.072Z,71.93
2018-10-21T23:37:22.647Z,71.83
2018-10-21T23:39:53.507Z,71.70
2018-10-21T23:42:24.334Z,72.08
2018-10-21T23:44:55.228Z,72.12
2018-10-21T23:47:26.064Z,72.25
2018-10-21T23:49:56.948Z,72.07
2018-10-21T23:52:27.807Z,72.13
2018-10-21T23:54:58.663Z,71.84
2018-10-21T23:57:29.550Z,72.71
